sensor_id;sensor_type;location;lat;lon;timestamp;temperature;humidity
52387;DHT22;38317;53.084;6.960;2023-07-13T00:01:50;16.00;99.90
52387;DHT22;38317;53.084;6.960;2023-07-13T00:04:22;16.00;99.90
52387;DHT22;38317;53.084;6.960;2023-07-13T00:06:48;16.00;99.90
52387;DHT22;38317;53.084;6.960;2023-07-13T00:09:15;15.90;99.90
52387;DHT22;38317;53.084;6.960;2023-07-13T00:11:42;15.90;99.90
52387;DHT22;38317;53.084;6.960;2023-07-13T00:14:09;15.90;99.90
52387;DHT22;38317;53.084;6.960;2023-07-13T00:16:37;15.90;99.90
52387;DHT22;38317;53.084;6.960;2023-07-13T00:19:04;15.80;99.90
52387;DHT22;38317;53.084;6.960;2023-07-13T00:21:30;15.80;99.90
52387;DHT22;38317;53.084;6.960;2023-07-13T00:23:57;15.80;99.90
52387;DHT22;38317;53.084;6.960;2023-07-13T00:26:23;15.80;99.90
52387;DHT22;38317;53.084;6.960;2023-07-13T00:28:48;15.70;99.90
52387;DHT22;38317;53.084;6.960;2023-07-13T00:31:14;15.70;99.90
52387;DHT22;38317;53.084;6.960;2023-07-13T00:33:41;15.70;99.90
52387;DHT22;38317;53.084;6.960;2023-07-13T00:36:08;15.70;99.90
52387;DHT22;38317;53.084;6.960;2023-07-13T00:38:34;15.70;99.90
52387;DHT22;38317;53.084;6.960;2023-07-13T00:40:59;15.70;99.90
52387;DHT22;38317;53.084;6.960;2023-07-13T00:43:27;15.70;99.90
52387;DHT22;38317;53.084;6.960;2023-07-13T00:48:21;15.70;99.90
52387;DHT22;38317;53.084;6.960;2023-07-13T00:50:50;15.70;99.90
52387;DHT22;38317;53.084;6.960;2023-07-13T00:53:18;15.70;99.90
52387;DHT22;38317;53.084;6.960;2023-07-13T00:55:44;15.70;99.90
52387;DHT22;38317;53.084;6.960;2023-07-13T00:58:10;15.70;99.90
52387;DHT22;38317;53.084;6.960;2023-07-13T01:00:37;15.70;99.90
52387;DHT22;38317;53.084;6.960;2023-07-13T01:03:04;15.70;99.90
52387;DHT22;38317;53.084;6.960;2023-07-13T01:05:32;15.70;99.90
52387;DHT22;38317;53.084;6.960;2023-07-13T01:07:59;15.70;99.90
52387;DHT22;38317;53.084;6.960;2023-07-13T01:10:26;15.70;99.90
52387;DHT22;38317;53.084;6.960;2023-07-13T01:12:52;15.70;99.90
52387;DHT22;38317;53.084;6.960;2023-07-13T01:15:41;15.70;99.90
52387;DHT22;38317;53.084;6.960;2023-07-13T01:18:17;15.70;99.90
52387;DHT22;38317;53.084;6.960;2023-07-13T01:20:58;15.70;99.90
52387;DHT22;38317;53.084;6.960;2023-07-13T01:23:24;15.70;99.90
52387;DHT22;38317;53.084;6.960;2023-07-13T01:25:51;15.70;99.90
52387;DHT22;38317;53.084;6.960;2023-07-13T01:28:17;15.70;99.90
52387;DHT22;38317;53.084;6.960;2023-07-13T01:30:45;15.70;99.90
52387;DHT22;38317;53.084;6.960;2023-07-13T01:33:13;15.70;99.90
52387;DHT22;38317;53.084;6.960;2023-07-13T01:35:40;15.70;99.90
52387;DHT22;38317;53.084;6.960;2023-07-13T01:38:05;15.70;99.90
52387;DHT22;38317;53.084;6.960;2023-07-13T01:40:32;15.80;99.90
52387;DHT22;38317;53.084;6.960;2023-07-13T01:43:00;15.70;99.90
52387;DHT22;38317;53.084;6.960;2023-07-13T01:45:25;15.70;99.90
52387;DHT22;38317;53.084;6.960;2023-07-13T01:47:51;15.80;99.90
52387;DHT22;38317;53.084;6.960;2023-07-13T01:50:17;15.80;99.90
52387;DHT22;38317;53.084;6.960;2023-07-13T01:52:43;15.80;99.90
52387;DHT22;38317;53.084;6.960;2023-07-13T01:55:08;15.80;99.90
52387;DHT22;38317;53.084;6.960;2023-07-13T01:57:34;15.80;99.90
52387;DHT22;38317;53.084;6.960;2023-07-13T02:00:04;15.80;99.90
52387;DHT22;38317;53.084;6.960;2023-07-13T02:02:30;15.80;99.90
52387;DHT22;38317;53.084;6.960;2023-07-13T02:04:56;15.80;99.90
52387;DHT22;38317;53.084;6.960;2023-07-13T02:07:22;15.80;99.90
52387;DHT22;38317;53.084;6.960;2023-07-13T02:09:48;15.70;99.90
52387;DHT22;38317;53.084;6.960;2023-07-13T02:12:13;15.80;99.90
52387;DHT22;38317;53.084;6.960;2023-07-13T02:14:39;15.80;99.90
52387;DHT22;38317;53.084;6.960;2023-07-13T02:17:05;15.70;99.90
52387;DHT22;38317;53.084;6.960;2023-07-13T02:19:31;15.70;99.90
52387;DHT22;38317;53.084;6.960;2023-07-13T02:21:57;15.80;99.90
52387;DHT22;38317;53.084;6.960;2023-07-13T02:24:23;15.80;99.90
52387;DHT22;38317;53.084;6.960;2023-07-13T02:26:48;15.80;99.90
52387;DHT22;38317;53.084;6.960;2023-07-13T02:29:14;15.80;99.90
52387;DHT22;38317;53.084;6.960;2023-07-13T02:31:40;15.80;99.90
52387;DHT22;38317;53.084;6.960;2023-07-13T02:34:06;15.80;99.90
52387;DHT22;38317;53.084;6.960;2023-07-13T02:36:32;15.70;99.90
52387;DHT22;38317;53.084;6.960;2023-07-13T02:39:01;15.70;99.90
52387;DHT22;38317;53.084;6.960;2023-07-13T02:41:28;15.80;99.90
52387;DHT22;38317;53.084;6.960;2023-07-13T02:43:54;15.80;99.90
52387;DHT22;38317;53.084;6.960;2023-07-13T02:46:22;15.80;99.90
52387;DHT22;38317;53.084;6.960;2023-07-13T02:48:49;15.70;99.90
52387;DHT22;38317;53.084;6.960;2023-07-13T02:51:15;15.70;99.90
52387;DHT22;38317;53.084;6.960;2023-07-13T02:53:41;15.80;99.90
52387;DHT22;38317;53.084;6.960;2023-07-13T02:56:06;15.70;99.90
52387;DHT22;38317;53.084;6.960;2023-07-13T02:58:32;15.80;99.90
52387;DHT22;38317;53.084;6.960;2023-07-13T03:01:09;15.80;99.90
52387;DHT22;38317;53.084;6.960;2023-07-13T03:03:36;15.80;99.90
52387;DHT22;38317;53.084;6.960;2023-07-13T03:06:03;15.80;99.90
52387;DHT22;38317;53.084;6.960;2023-07-13T03:08:30;15.70;99.90
52387;DHT22;38317;53.084;6.960;2023-07-13T03:11:19;15.80;99.90
52387;DHT22;38317;53.084;6.960;2023-07-13T03:13:45;15.80;99.90
52387;DHT22;38317;53.084;6.960;2023-07-13T03:16:12;15.80;99.90
52387;DHT22;38317;53.084;6.960;2023-07-13T03:18:38;15.80;99.90
52387;DHT22;38317;53.084;6.960;2023-07-13T03:21:04;15.70;99.90
52387;DHT22;38317;53.084;6.960;2023-07-13T03:23:31;15.70;99.90
52387;DHT22;38317;53.084;6.960;2023-07-13T03:26:13;15.80;99.90
52387;DHT22;38317;53.084;6.960;2023-07-13T03:28:39;15.70;99.90
52387;DHT22;38317;53.084;6.960;2023-07-13T03:31:11;15.70;99.90
52387;DHT22;38317;53.084;6.960;2023-07-13T03:33:37;15.70;99.90
52387;DHT22;38317;53.084;6.960;2023-07-13T03:36:05;15.70;99.90
52387;DHT22;38317;53.084;6.960;2023-07-13T03:38:32;15.80;99.90
52387;DHT22;38317;53.084;6.960;2023-07-13T03:40:57;15.70;99.90
52387;DHT22;38317;53.084;6.960;2023-07-13T03:43:23;15.70;99.90
52387;DHT22;38317;53.084;6.960;2023-07-13T03:45:49;15.70;99.90
52387;DHT22;38317;53.084;6.960;2023-07-13T03:48:15;15.70;99.90
52387;DHT22;38317;53.084;6.960;2023-07-13T03:50:41;15.70;99.90
52387;DHT22;38317;53.084;6.960;2023-07-13T03:53:06;15.70;99.90
52387;DHT22;38317;53.084;6.960;2023-07-13T03:55:32;15.70;99.90
52387;DHT22;38317;53.084;6.960;2023-07-13T03:58:01;15.70;99.90
52387;DHT22;38317;53.084;6.960;2023-07-13T04:00:26;15.70;99.90
52387;DHT22;38317;53.084;6.960;2023-07-13T04:02:52;15.70;99.90
52387;DHT22;38317;53.084;6.960;2023-07-13T04:05:18;15.70;99.90
52387;DHT22;38317;53.084;6.960;2023-07-13T04:07:44;15.70;99.90
52387;DHT22;38317;53.084;6.960;2023-07-13T04:10:10;15.60;99.90
52387;DHT22;38317;53.084;6.960;2023-07-13T04:12:38;15.60;99.90
52387;DHT22;38317;53.084;6.960;2023-07-13T04:15:04;15.60;99.90
52387;DHT22;38317;53.084;6.960;2023-07-13T04:17:30;15.60;99.90
52387;DHT22;38317;53.084;6.960;2023-07-13T04:19:55;15.60;99.90
52387;DHT22;38317;53.084;6.960;2023-07-13T04:22:21;15.60;99.90
52387;DHT22;38317;53.084;6.960;2023-07-13T04:24:47;15.60;99.90
52387;DHT22;38317;53.084;6.960;2023-07-13T04:27:12;15.60;99.90
52387;DHT22;38317;53.084;6.960;2023-07-13T04:29:38;15.60;99.90
52387;DHT22;38317;53.084;6.960;2023-07-13T04:32:04;15.70;99.90
52387;DHT22;38317;53.084;6.960;2023-07-13T04:34:30;15.60;99.90
52387;DHT22;38317;53.084;6.960;2023-07-13T04:36:56;15.70;99.90
52387;DHT22;38317;53.084;6.960;2023-07-13T04:39:21;15.70;99.90
52387;DHT22;38317;53.084;6.960;2023-07-13T04:41:47;15.70;99.90
52387;DHT22;38317;53.084;6.960;2023-07-13T04:44:13;15.70;99.90
52387;DHT22;38317;53.084;6.960;2023-07-13T04:46:38;15.70;99.90
52387;DHT22;38317;53.084;6.960;2023-07-13T04:49:04;15.70;99.90
52387;DHT22;38317;53.084;6.960;2023-07-13T04:51:30;15.70;99.90
52387;DHT22;38317;53.084;6.960;2023-07-13T04:53:56;15.60;99.90
52387;DHT22;38317;53.084;6.960;2023-07-13T04:56:21;15.60;99.90
52387;DHT22;38317;53.084;6.960;2023-07-13T04:58:47;15.60;99.90
52387;DHT22;38317;53.084;6.960;2023-07-13T05:01:13;15.60;99.90
52387;DHT22;38317;53.084;6.960;2023-07-13T05:03:39;15.50;99.90
52387;DHT22;38317;53.084;6.960;2023-07-13T05:06:07;15.50;99.90
52387;DHT22;38317;53.084;6.960;2023-07-13T05:08:35;15.50;99.90
52387;DHT22;38317;53.084;6.960;2023-07-13T05:11:02;15.50;99.90
52387;DHT22;38317;53.084;6.960;2023-07-13T05:13:28;15.60;99.90
52387;DHT22;38317;53.084;6.960;2023-07-13T05:15:59;15.60;99.90
52387;DHT22;38317;53.084;6.960;2023-07-13T05:18:26;15.60;99.90
52387;DHT22;38317;53.084;6.960;2023-07-13T05:21:18;15.60;99.90
52387;DHT22;38317;53.084;6.960;2023-07-13T05:23:44;15.70;99.90
52387;DHT22;38317;53.084;6.960;2023-07-13T05:26:10;15.70;99.90
52387;DHT22;38317;53.084;6.960;2023-07-13T05:28:39;15.70;99.90
52387;DHT22;38317;53.084;6.960;2023-07-13T05:31:07;15.70;99.90
52387;DHT22;38317;53.084;6.960;2023-07-13T05:33:33;15.80;99.90
52387;DHT22;38317;53.084;6.960;2023-07-13T05:35:59;15.80;99.90
52387;DHT22;38317;53.084;6.960;2023-07-13T05:38:26;15.80;99.90
52387;DHT22;38317;53.084;6.960;2023-07-13T05:40:54;15.80;99.90
52387;DHT22;38317;53.084;6.960;2023-07-13T05:43:21;15.90;99.90
52387;DHT22;38317;53.084;6.960;2023-07-13T05:49:09;16.00;99.90
52387;DHT22;38317;53.084;6.960;2023-07-13T05:51:35;16.00;99.90
52387;DHT22;38317;53.084;6.960;2023-07-13T05:54:00;16.10;99.90
52387;DHT22;38317;53.084;6.960;2023-07-13T05:56:26;16.00;99.90
52387;DHT22;38317;53.084;6.960;2023-07-13T05:58:52;16.10;99.90
52387;DHT22;38317;53.084;6.960;2023-07-13T06:01:18;16.10;99.90
52387;DHT22;38317;53.084;6.960;2023-07-13T06:03:47;16.10;99.90
52387;DHT22;38317;53.084;6.960;2023-07-13T06:06:13;16.10;99.90
52387;DHT22;38317;53.084;6.960;2023-07-13T06:08:39;16.10;99.90
52387;DHT22;38317;53.084;6.960;2023-07-13T06:11:16;16.20;99.90
52387;DHT22;38317;53.084;6.960;2023-07-13T06:13:42;16.20;99.90
52387;DHT22;38317;53.084;6.960;2023-07-13T06:16:08;16.20;99.90
52387;DHT22;38317;53.084;6.960;2023-07-13T06:18:35;16.30;99.90
52387;DHT22;38317;53.084;6.960;2023-07-13T06:21:14;16.30;99.90
52387;DHT22;38317;53.084;6.960;2023-07-13T06:23:40;16.40;99.90
52387;DHT22;38317;53.084;6.960;2023-07-13T06:26:07;16.40;99.90
52387;DHT22;38317;53.084;6.960;2023-07-13T06:28:34;16.40;99.90
52387;DHT22;38317;53.084;6.960;2023-07-13T06:31:01;16.50;99.90
52387;DHT22;38317;53.084;6.960;2023-07-13T06:33:27;16.50;99.90
52387;DHT22;38317;53.084;6.960;2023-07-13T06:35:53;16.60;99.90
52387;DHT22;38317;53.084;6.960;2023-07-13T06:38:20;16.70;99.90
52387;DHT22;38317;53.084;6.960;2023-07-13T06:40:46;16.70;99.90
52387;DHT22;38317;53.084;6.960;2023-07-13T06:43:12;16.80;99.90
52387;DHT22;38317;53.084;6.960;2023-07-13T06:45:44;16.90;99.90
52387;DHT22;38317;53.084;6.960;2023-07-13T06:48:16;16.90;99.90
52387;DHT22;38317;53.084;6.960;2023-07-13T06:50:43;17.00;99.90
52387;DHT22;38317;53.084;6.960;2023-07-13T06:53:10;17.00;99.90
52387;DHT22;38317;53.084;6.960;2023-07-13T06:55:36;17.10;99.90
52387;DHT22;38317;53.084;6.960;2023-07-13T06:58:02;17.10;99.90
52387;DHT22;38317;53.084;6.960;2023-07-13T07:00:28;17.10;99.90
52387;DHT22;38317;53.084;6.960;2023-07-13T07:02:54;17.10;99.90
52387;DHT22;38317;53.084;6.960;2023-07-13T07:05:20;17.20;99.90
52387;DHT22;38317;53.084;6.960;2023-07-13T07:07:51;17.30;99.90
52387;DHT22;38317;53.084;6.960;2023-07-13T07:10:18;17.40;99.90
52387;DHT22;38317;53.084;6.960;2023-07-13T07:12:44;17.40;99.90
52387;DHT22;38317;53.084;6.960;2023-07-13T07:15:10;17.50;99.90
52387;DHT22;38317;53.084;6.960;2023-07-13T07:17:36;17.50;99.90
52387;DHT22;38317;53.084;6.960;2023-07-13T07:20:02;17.60;99.90
52387;DHT22;38317;53.084;6.960;2023-07-13T07:22:29;17.70;99.90
52387;DHT22;38317;53.084;6.960;2023-07-13T07:24:56;17.80;99.90
52387;DHT22;38317;53.084;6.960;2023-07-13T07:27:23;18.00;99.90
52387;DHT22;38317;53.084;6.960;2023-07-13T07:29:49;18.10;99.90
52387;DHT22;38317;53.084;6.960;2023-07-13T07:32:14;18.20;99.90
52387;DHT22;38317;53.084;6.960;2023-07-13T07:34:40;18.30;99.90
52387;DHT22;38317;53.084;6.960;2023-07-13T07:37:06;18.40;99.90
52387;DHT22;38317;53.084;6.960;2023-07-13T07:39:32;18.50;99.90
52387;DHT22;38317;53.084;6.960;2023-07-13T07:41:58;18.70;99.90
52387;DHT22;38317;53.084;6.960;2023-07-13T07:44:24;18.80;99.90
52387;DHT22;38317;53.084;6.960;2023-07-13T07:46:50;18.90;99.90
52387;DHT22;38317;53.084;6.960;2023-07-13T07:49:17;19.00;99.90
52387;DHT22;38317;53.084;6.960;2023-07-13T07:51:44;19.00;99.90
52387;DHT22;38317;53.084;6.960;2023-07-13T07:54:09;19.10;99.90
52387;DHT22;38317;53.084;6.960;2023-07-13T07:56:35;19.00;99.90
52387;DHT22;38317;53.084;6.960;2023-07-13T07:59:01;19.00;99.90
52387;DHT22;38317;53.084;6.960;2023-07-13T08:01:26;19.00;99.90
52387;DHT22;38317;53.084;6.960;2023-07-13T08:03:52;19.00;99.90
52387;DHT22;38317;53.084;6.960;2023-07-13T08:06:18;19.00;99.90
52387;DHT22;38317;53.084;6.960;2023-07-13T08:08:45;18.90;99.90
52387;DHT22;38317;53.084;6.960;2023-07-13T08:11:11;19.00;99.90
52387;DHT22;38317;53.084;6.960;2023-07-13T08:13:37;19.00;99.90
52387;DHT22;38317;53.084;6.960;2023-07-13T08:16:04;19.00;99.90
52387;DHT22;38317;53.084;6.960;2023-07-13T08:18:31;19.00;99.90
52387;DHT22;38317;53.084;6.960;2023-07-13T08:20:57;19.10;99.90
52387;DHT22;38317;53.084;6.960;2023-07-13T08:23:25;19.00;99.90
52387;DHT22;38317;53.084;6.960;2023-07-13T08:25:52;19.00;99.90
52387;DHT22;38317;53.084;6.960;2023-07-13T08:28:19;18.90;99.90
52387;DHT22;38317;53.084;6.960;2023-07-13T08:30:45;18.70;99.90
52387;DHT22;38317;53.084;6.960;2023-07-13T08:33:15;18.50;99.90
52387;DHT22;38317;53.084;6.960;2023-07-13T08:35:41;18.20;99.90
52387;DHT22;38317;53.084;6.960;2023-07-13T08:38:07;18.00;99.90
52387;DHT22;38317;53.084;6.960;2023-07-13T08:40:34;18.00;99.90
52387;DHT22;38317;53.084;6.960;2023-07-13T08:42:59;17.80;99.90
52387;DHT22;38317;53.084;6.960;2023-07-13T08:45:49;17.70;99.90
52387;DHT22;38317;53.084;6.960;2023-07-13T08:48:21;17.70;99.90
52387;DHT22;38317;53.084;6.960;2023-07-13T08:51:00;17.50;99.90
52387;DHT22;38317;53.084;6.960;2023-07-13T08:53:40;17.40;99.90
52387;DHT22;38317;53.084;6.960;2023-07-13T08:56:15;17.30;99.90
52387;DHT22;38317;53.084;6.960;2023-07-13T08:58:41;17.20;99.90
52387;DHT22;38317;53.084;6.960;2023-07-13T09:04:08;17.00;99.90
52387;DHT22;38317;53.084;6.960;2023-07-13T09:14:50;16.80;99.90
52387;DHT22;38317;53.084;6.960;2023-07-13T09:19:56;16.30;99.90
52387;DHT22;38317;53.084;6.960;2023-07-13T09:22:24;16.10;99.90
52387;DHT22;38317;53.084;6.960;2023-07-13T09:27:44;15.60;99.90
52387;DHT22;38317;53.084;6.960;2023-07-13T09:32:41;15.60;99.90
52387;DHT22;38317;53.084;6.960;2023-07-13T09:35:14;15.60;99.90
52387;DHT22;38317;53.084;6.960;2023-07-13T09:37:44;15.70;99.90
52387;DHT22;38317;53.084;6.960;2023-07-13T09:40:17;15.70;99.90
52387;DHT22;38317;53.084;6.960;2023-07-13T09:42:45;15.70;99.90
52387;DHT22;38317;53.084;6.960;2023-07-13T09:45:26;15.80;99.90
52387;DHT22;38317;53.084;6.960;2023-07-13T09:47:59;16.00;99.90
52387;DHT22;38317;53.084;6.960;2023-07-13T09:50:28;16.20;99.90
52387;DHT22;38317;53.084;6.960;2023-07-13T09:52:55;16.30;99.90
52387;DHT22;38317;53.084;6.960;2023-07-13T09:55:35;16.10;99.90
52387;DHT22;38317;53.084;6.960;2023-07-13T10:00:36;16.60;99.90
52387;DHT22;38317;53.084;6.960;2023-07-13T10:03:23;16.70;99.90
52387;DHT22;38317;53.084;6.960;2023-07-13T10:05:50;16.80;99.90
52387;DHT22;38317;53.084;6.960;2023-07-13T10:08:28;16.90;99.90
52387;DHT22;38317;53.084;6.960;2023-07-13T10:13:42;17.40;99.90
52387;DHT22;38317;53.084;6.960;2023-07-13T10:16:09;17.60;99.90
52387;DHT22;38317;53.084;6.960;2023-07-13T10:18:50;17.80;99.90
52387;DHT22;38317;53.084;6.960;2023-07-13T10:21:21;18.20;99.90
52387;DHT22;38317;53.084;6.960;2023-07-13T10:23:54;18.50;99.90
52387;DHT22;38317;53.084;6.960;2023-07-13T10:26:29;18.60;99.90
52387;DHT22;38317;53.084;6.960;2023-07-13T10:29:00;18.60;99.90
52387;DHT22;38317;53.084;6.960;2023-07-13T10:31:27;18.40;99.90
52387;DHT22;38317;53.084;6.960;2023-07-13T10:33:53;18.20;99.90
52387;DHT22;38317;53.084;6.960;2023-07-13T10:38:51;17.70;99.90
52387;DHT22;38317;53.084;6.960;2023-07-13T10:41:21;17.50;99.90
52387;DHT22;38317;53.084;6.960;2023-07-13T10:43:51;17.50;99.90
52387;DHT22;38317;53.084;6.960;2023-07-13T10:46:22;17.70;99.90
52387;DHT22;38317;53.084;6.960;2023-07-13T10:48:51;17.80;99.90
52387;DHT22;38317;53.084;6.960;2023-07-13T10:51:19;17.90;99.90
52387;DHT22;38317;53.084;6.960;2023-07-13T10:54:10;18.00;99.90
52387;DHT22;38317;53.084;6.960;2023-07-13T10:56:34;18.00;99.90
52387;DHT22;38317;53.084;6.960;2023-07-13T10:59:23;18.10;99.90
52387;DHT22;38317;53.084;6.960;2023-07-13T11:04:29;18.10;99.90
52387;DHT22;38317;53.084;6.960;2023-07-13T11:07:16;18.10;99.90
52387;DHT22;38317;53.084;6.960;2023-07-13T11:09:43;18.00;99.90
52387;DHT22;38317;53.084;6.960;2023-07-13T11:20:34;17.80;99.90
52387;DHT22;38317;53.084;6.960;2023-07-13T11:25:37;17.90;99.90
52387;DHT22;38317;53.084;6.960;2023-07-13T11:30:38;18.80;99.90
52387;DHT22;38317;53.084;6.960;2023-07-13T11:33:20;19.20;99.90
52387;DHT22;38317;53.084;6.960;2023-07-13T11:35:59;19.40;99.90
52387;DHT22;38317;53.084;6.960;2023-07-13T11:38:42;19.40;99.90
52387;DHT22;38317;53.084;6.960;2023-07-13T11:41:18;19.40;99.90
52387;DHT22;38317;53.084;6.960;2023-07-13T11:43:45;19.60;99.90
52387;DHT22;38317;53.084;6.960;2023-07-13T11:46:16;19.90;99.90
52387;DHT22;38317;53.084;6.960;2023-07-13T11:48:44;20.20;99.90
52387;DHT22;38317;53.084;6.960;2023-07-13T11:51:38;20.50;99.90
52387;DHT22;38317;53.084;6.960;2023-07-13T11:54:06;20.80;99.90
52387;DHT22;38317;53.084;6.960;2023-07-13T11:56:33;21.10;99.90
52387;DHT22;38317;53.084;6.960;2023-07-13T11:59:06;21.10;99.90
52387;DHT22;38317;53.084;6.960;2023-07-13T12:01:34;21.10;99.90
52387;DHT22;38317;53.084;6.960;2023-07-13T12:04:03;21.00;99.90
52387;DHT22;38317;53.084;6.960;2023-07-13T12:06:31;20.80;99.90
52387;DHT22;38317;53.084;6.960;2023-07-13T12:09:02;20.60;99.90
52387;DHT22;38317;53.084;6.960;2023-07-13T12:11:29;20.40;99.90
52387;DHT22;38317;53.084;6.960;2023-07-13T12:13:55;20.30;99.90
52387;DHT22;38317;53.084;6.960;2023-07-13T12:16:30;20.20;99.90
52387;DHT22;38317;53.084;6.960;2023-07-13T12:18:59;20.20;99.90
52387;DHT22;38317;53.084;6.960;2023-07-13T12:21:34;20.10;99.90
52387;DHT22;38317;53.084;6.960;2023-07-13T12:24:01;19.90;99.90
52387;DHT22;38317;53.084;6.960;2023-07-13T12:26:30;19.80;99.90
52387;DHT22;38317;53.084;6.960;2023-07-13T12:28:58;19.90;99.90
52387;DHT22;38317;53.084;6.960;2023-07-13T12:31:42;20.30;99.90
52387;DHT22;38317;53.084;6.960;2023-07-13T12:34:15;20.80;99.90
52387;DHT22;38317;53.084;6.960;2023-07-13T12:36:49;20.80;99.90
52387;DHT22;38317;53.084;6.960;2023-07-13T12:41:52;20.40;99.90
52387;DHT22;38317;53.084;6.960;2023-07-13T12:44:30;20.40;99.90
52387;DHT22;38317;53.084;6.960;2023-07-13T12:47:03;20.70;99.90
52387;DHT22;38317;53.084;6.960;2023-07-13T12:49:32;21.10;99.90
52387;DHT22;38317;53.084;6.960;2023-07-13T12:52:09;21.30;99.90
52387;DHT22;38317;53.084;6.960;2023-07-13T12:54:40;21.50;99.90
52387;DHT22;38317;53.084;6.960;2023-07-13T12:57:07;21.50;99.90
52387;DHT22;38317;53.084;6.960;2023-07-13T12:59:38;21.70;99.90
52387;DHT22;38317;53.084;6.960;2023-07-13T13:02:21;22.00;99.90
52387;DHT22;38317;53.084;6.960;2023-07-13T13:04:48;22.30;99.90
52387;DHT22;38317;53.084;6.960;2023-07-13T13:07:14;22.50;99.90
52387;DHT22;38317;53.084;6.960;2023-07-13T13:09:40;22.50;99.90
52387;DHT22;38317;53.084;6.960;2023-07-13T13:12:06;22.10;99.90
52387;DHT22;38317;53.084;6.960;2023-07-13T13:14:32;22.00;99.90
52387;DHT22;38317;53.084;6.960;2023-07-13T13:16:58;22.20;99.90
52387;DHT22;38317;53.084;6.960;2023-07-13T13:19:27;22.40;99.90
52387;DHT22;38317;53.084;6.960;2023-07-13T13:21:54;22.60;99.90
52387;DHT22;38317;53.084;6.960;2023-07-13T13:24:25;22.50;99.90
52387;DHT22;38317;53.084;6.960;2023-07-13T13:26:53;22.40;99.90
52387;DHT22;38317;53.084;6.960;2023-07-13T13:29:21;22.00;99.90
52387;DHT22;38317;53.084;6.960;2023-07-13T13:31:49;21.90;99.90
52387;DHT22;38317;53.084;6.960;2023-07-13T13:34:17;22.00;99.90
52387;DHT22;38317;53.084;6.960;2023-07-13T13:36:44;22.20;99.90
52387;DHT22;38317;53.084;6.960;2023-07-13T13:39:22;22.20;99.90
52387;DHT22;38317;53.084;6.960;2023-07-13T13:41:50;22.30;99.90
52387;DHT22;38317;53.084;6.960;2023-07-13T13:44:17;22.20;99.90
52387;DHT22;38317;53.084;6.960;2023-07-13T13:46:45;22.10;99.90
52387;DHT22;38317;53.084;6.960;2023-07-13T13:49:18;22.00;99.90
52387;DHT22;38317;53.084;6.960;2023-07-13T13:51:45;21.90;99.90
52387;DHT22;38317;53.084;6.960;2023-07-13T13:54:13;22.00;99.90
52387;DHT22;38317;53.084;6.960;2023-07-13T13:56:44;22.10;99.90
52387;DHT22;38317;53.084;6.960;2023-07-13T13:59:11;22.00;99.90
52387;DHT22;38317;53.084;6.960;2023-07-13T14:01:37;22.10;99.90
52387;DHT22;38317;53.084;6.960;2023-07-13T14:04:03;22.30;99.90
52387;DHT22;38317;53.084;6.960;2023-07-13T14:06:31;22.30;99.90
52387;DHT22;38317;53.084;6.960;2023-07-13T14:08:57;22.10;99.90
52387;DHT22;38317;53.084;6.960;2023-07-13T14:11:22;22.00;99.90
52387;DHT22;38317;53.084;6.960;2023-07-13T14:13:55;22.10;99.90
52387;DHT22;38317;53.084;6.960;2023-07-13T14:16:22;22.30;99.90
52387;DHT22;38317;53.084;6.960;2023-07-13T14:18:53;22.50;99.90
52387;DHT22;38317;53.084;6.960;2023-07-13T14:21:21;22.70;99.90
52387;DHT22;38317;53.084;6.960;2023-07-13T14:23:48;22.90;99.90
52387;DHT22;38317;53.084;6.960;2023-07-13T14:26:24;23.00;99.90
52387;DHT22;38317;53.084;6.960;2023-07-13T14:28:56;23.20;99.90
52387;DHT22;38317;53.084;6.960;2023-07-13T14:31:24;23.30;99.90
52387;DHT22;38317;53.084;6.960;2023-07-13T14:33:50;23.40;99.90
52387;DHT22;38317;53.084;6.960;2023-07-13T14:36:42;23.40;99.90
52387;DHT22;38317;53.084;6.960;2023-07-13T14:39:19;23.40;99.90
52387;DHT22;38317;53.084;6.960;2023-07-13T14:41:45;23.50;99.90
52387;DHT22;38317;53.084;6.960;2023-07-13T14:44:15;23.60;99.90
52387;DHT22;38317;53.084;6.960;2023-07-13T14:46:43;23.60;99.90
52387;DHT22;38317;53.084;6.960;2023-07-13T14:52:19;23.40;99.90
52387;DHT22;38317;53.084;6.960;2023-07-13T14:54:46;23.20;99.90
52387;DHT22;38317;53.084;6.960;2023-07-13T14:57:13;23.00;99.90
52387;DHT22;38317;53.084;6.960;2023-07-13T14:59:39;22.90;99.90
52387;DHT22;38317;53.084;6.960;2023-07-13T15:02:27;22.90;99.90
52387;DHT22;38317;53.084;6.960;2023-07-13T15:04:53;23.00;99.90
52387;DHT22;38317;53.084;6.960;2023-07-13T15:07:20;23.00;99.90
52387;DHT22;38317;53.084;6.960;2023-07-13T15:09:49;22.90;99.90
52387;DHT22;38317;53.084;6.960;2023-07-13T15:12:19;22.60;99.90
52387;DHT22;38317;53.084;6.960;2023-07-13T15:14:45;22.40;99.90
52387;DHT22;38317;53.084;6.960;2023-07-13T15:17:27;22.30;99.90
52387;DHT22;38317;53.084;6.960;2023-07-13T15:19:53;22.30;99.90
52387;DHT22;38317;53.084;6.960;2023-07-13T15:22:19;22.20;99.90
52387;DHT22;38317;53.084;6.960;2023-07-13T15:24:45;22.20;99.90
52387;DHT22;38317;53.084;6.960;2023-07-13T15:27:14;22.20;99.90
52387;DHT22;38317;53.084;6.960;2023-07-13T15:29:39;22.20;99.90
52387;DHT22;38317;53.084;6.960;2023-07-13T15:32:13;22.30;99.90
52387;DHT22;38317;53.084;6.960;2023-07-13T15:34:39;22.50;99.90
52387;DHT22;38317;53.084;6.960;2023-07-13T15:37:16;22.70;99.90
52387;DHT22;38317;53.084;6.960;2023-07-13T15:39:43;22.90;99.90
52387;DHT22;38317;53.084;6.960;2023-07-13T15:42:20;23.00;99.90
52387;DHT22;38317;53.084;6.960;2023-07-13T15:44:47;23.00;99.90
52387;DHT22;38317;53.084;6.960;2023-07-13T15:47:14;22.90;99.90
52387;DHT22;38317;53.084;6.960;2023-07-13T15:49:40;22.80;99.90
52387;DHT22;38317;53.084;6.960;2023-07-13T15:52:22;22.60;99.90
52387;DHT22;38317;53.084;6.960;2023-07-13T15:54:48;22.70;99.90
52387;DHT22;38317;53.084;6.960;2023-07-13T15:57:14;22.80;99.90
52387;DHT22;38317;53.084;6.960;2023-07-13T15:59:41;22.80;99.90
52387;DHT22;38317;53.084;6.960;2023-07-13T16:02:19;22.90;99.90
52387;DHT22;38317;53.084;6.960;2023-07-13T16:04:46;22.90;99.90
52387;DHT22;38317;53.084;6.960;2023-07-13T16:07:14;23.00;99.90
52387;DHT22;38317;53.084;6.960;2023-07-13T16:09:42;23.00;99.90
52387;DHT22;38317;53.084;6.960;2023-07-13T16:12:14;22.90;99.90
52387;DHT22;38317;53.084;6.960;2023-07-13T16:14:41;22.70;99.90
52387;DHT22;38317;53.084;6.960;2023-07-13T16:17:11;22.70;99.90
52387;DHT22;38317;53.084;6.960;2023-07-13T16:19:37;22.50;99.90
52387;DHT22;38317;53.084;6.960;2023-07-13T16:22:03;22.40;99.90
52387;DHT22;38317;53.084;6.960;2023-07-13T16:24:31;22.40;99.90
52387;DHT22;38317;53.084;6.960;2023-07-13T16:26:58;22.50;99.90
52387;DHT22;38317;53.084;6.960;2023-07-13T16:29:29;22.60;99.90
52387;DHT22;38317;53.084;6.960;2023-07-13T16:32:03;22.60;99.90
52387;DHT22;38317;53.084;6.960;2023-07-13T16:34:33;22.60;99.90